SBPV/PVH METAR and TAF weather

Enter ICAO airport designator
Station Type Date Time Source
SBPV METAR 2019/12/13 03:00 UTC NOAA

SBPV 130300Z 12005KT 9999 -RA SCT030 FEW035TCU BKN100 25/24 Q1010


Station Type Date Time Source
SBPV Decoded METAR 2019/12/13 03:00 UTC NOAA

Porto Velho Aeroporto , Brazil (SBPV) 08-46S 063-55W 102M
Dec 12, 2019 - 10:00 PM EST / 2019.12.13 0300 UTC
Wind: from the ESE (120 degrees) at 6 MPH (5 KT):0
Visibility: greater than 7 mile(s):0
Sky conditions: mostly cloudy
Weather: light rain; Towering cumulus clouds observed
Temperature: 77 F (25 C)
Dew Point: 75 F (24 C)
Relative Humidity: 94%
Pressure (altimeter): 29.83 in. Hg (1010 hPa)
ob: SBPV 130300Z 12005KT 9999 -RA SCT030 FEW035TCU BKN100 25/24 Q1010
cycle: 3

Station Type Date Time Source
SBPV TAF 2019/12/13 06:21 UTC NOAA

TAF SBPV 130315Z 1306/1406 03005KT 4000 TSRA SCT012 FEW030CB TN24/1309Z TX29/1317Z
BECMG 1310/1312 9999 NSW SCT010 FEW030TCU
BECMG 1313/1315 35005KT SCT020
BECMG 1316/1318 33010KT TS SCT025 FEW030CB PROB30 1318/1321 33015KT 5000 TSRA BKN017 FEW030CB
BECMG 1400/1402 33005KT NSW SCT015
BECMG 1404/1406 SCT012
RMK PGS

Example: see airport list